Neshkoro, Wisconsin
Current Conditions -  °F | °C
As of 1:56 PM on Wednesday 28 Jan 2015 (Local Time) from KY50 Reporting Station
Few Clouds Few Clouds  
Wind Chill: 23°   Ceiling: Unl
Heat Index: 31°   Visibility: 10mi
Dew Point: 22°   Wind: 9mph
Humidity: 69%   Direction: 150°SSE
Pressure: 30.03"   Gusts: NA
Location:  43.97°N, 89.22°W
Report Text: KY50 281956Z AUTO 15008KT 10SM FEW110 M01/M06 A3003 RMK AO2 TSNO T10051055 SLP177
Loading
Personal Weather Stations






























Interactive Weather Map New forecast layout! Learn more

10-Day Weather Forecast

Advertisements
Track Severe Weather on mobile